PWSweather.com
Personal Weather Stations
Station Observations

ChardChardGB

Lat: 50.877408, Lon: -2.94964741

Elevation: 341

Station Type: WS3083

http://www.merriott-astro.co.uk/weather/index.htm

High Low Average
Temperature 59.9°F15.5°C 55.4°F13.0°C 57.5°F14.2°C
Dew Point 52.3°F11.3°C 49.3°F9.6°C 51.5°F10.8°C
Winds 9.4 mph 15.1 kmh 1.8 mph 2.9 kmh 8.0 mph NE12.9 kmh NE
Wind Gusts 11.4 mph18.3 kmh 3.1 mph5.0 kmh 8.0 mph12.9 kmh
Humidity 82% 72% 81%
Pressure 29.73 in1006.8 mb 29.68 in1005.1 mb -
Precipitation 0.00 in0.0 mm - -
Hour Temp Dew Point Humidity Winds Wind Gusts Pressure Precip Precip Rate Daily Precip Total
12:00 AM 58.3°F14.6°C 51.8°F11.0°C 79% 8.4 mph E13.5 kmh E 11.4 mph18.3 kmh 29.70 in1005.8 mb 0.00 in0.0 mm 0.00 in0.0 mm 0.00 in0.0 mm
12:10 AM 58.3°F14.6°C 52.1°F11.2°C 80% 6.4 mph NE10.3 kmh NE 9.8 mph15.8 kmh 29.70 in1005.8 mb 0.00 in0.0 mm 0.00 in0.0 mm 0.00 in0.0 mm
12:20 AM 58.1°F14.5°C 52.3°F11.3°C 81% 9.0 mph ENE14.5 kmh ENE 10.7 mph17.2 kmh 29.70 in1005.8 mb 0.00 in0.0 mm 0.00 in0.0 mm 0.00 in0.0 mm
12:30 AM 57.7°F14.3°C 52.0°F11.1°C 81% 8.4 mph E13.5 kmh E 11.4 mph18.3 kmh 29.70 in1005.8 mb 0.00 in0.0 mm 0.00 in0.0 mm 0.00 in0.0 mm
12:40 AM 57.4°F14.1°C 51.9°F11.1°C 82% 9.4 mph NE15.1 kmh NE 11.4 mph18.3 kmh 29.70 in1005.8 mb 0.00 in0.0 mm 0.00 in0.0 mm 0.00 in0.0 mm
12:50 AM 57.4°F14.1°C 51.9°F11.1°C 82% 9.2 mph NE14.8 kmh NE 9.2 mph14.8 kmh 29.70 in1005.8 mb 0.00 in0.0 mm 0.00 in0.0 mm 0.00 in0.0 mm
01:00 AM 57.4°F14.1°C 51.9°F11.1°C 82% 9.2 mph NE14.8 kmh NE 9.2 mph14.8 kmh 29.70 in1005.8 mb 0.00 in0.0 mm 0.00 in0.0 mm 0.00 in0.0 mm
01:10 AM 57.4°F14.1°C 51.9°F11.1°C 82% 9.2 mph NE14.8 kmh NE 9.2 mph14.8 kmh 29.70 in1005.8 mb 0.00 in0.0 mm 0.00 in0.0 mm 0.00 in0.0 mm
01:20 AM 57.4°F14.1°C 51.9°F11.1°C 82% 9.2 mph NE14.8 kmh NE 9.2 mph14.8 kmh 29.70 in1005.8 mb 0.00 in0.0 mm 0.00 in0.0 mm 0.00 in0.0 mm
01:30 AM 57.4°F14.1°C 51.9°F11.1°C 82% 9.2 mph NE14.8 kmh NE 9.2 mph14.8 kmh 29.70 in1005.8 mb 0.00 in0.0 mm 0.00 in0.0 mm 0.00 in0.0 mm
01:40 AM 57.4°F14.1°C 51.9°F11.1°C 82% 9.2 mph NE14.8 kmh NE 9.2 mph14.8 kmh 29.70 in1005.8 mb 0.00 in0.0 mm 0.00 in0.0 mm 0.00 in0.0 mm
01:50 AM 57.4°F14.1°C 51.9°F11.1°C 82% 9.2 mph NE14.8 kmh NE 9.2 mph14.8 kmh 29.70 in1005.8 mb 0.00 in0.0 mm 0.00 in0.0 mm 0.00 in0.0 mm
02:00 AM 57.4°F14.1°C 51.9°F11.1°C 82% 9.2 mph NE14.8 kmh NE 9.2 mph14.8 kmh 29.69 in1005.4 mb 0.00 in0.0 mm 0.00 in0.0 mm 0.00 in0.0 mm
02:10 AM 57.4°F14.1°C 51.9°F11.1°C 82% 9.2 mph NE14.8 kmh NE 9.2 mph14.8 kmh 29.69 in1005.4 mb 0.00 in0.0 mm 0.00 in0.0 mm 0.00 in0.0 mm
02:20 AM 57.4°F14.1°C 51.9°F11.1°C 82% 9.2 mph NE14.8 kmh NE 9.2 mph14.8 kmh 29.70 in1005.8 mb 0.00 in0.0 mm 0.00 in0.0 mm 0.00 in0.0 mm
02:30 AM 57.4°F14.1°C 51.9°F11.1°C 82% 9.2 mph NE14.8 kmh NE 9.2 mph14.8 kmh 29.70 in1005.8 mb 0.00 in0.0 mm 0.00 in0.0 mm 0.00 in0.0 mm
02:40 AM 57.4°F14.1°C 51.9°F11.1°C 82% 9.2 mph NE14.8 kmh NE 9.2 mph14.8 kmh 29.70 in1005.8 mb 0.00 in0.0 mm 0.00 in0.0 mm 0.00 in0.0 mm
02:50 AM 57.4°F14.1°C 51.9°F11.1°C 82% 9.2 mph NE14.8 kmh NE 9.2 mph14.8 kmh 29.71 in1006.1 mb 0.00 in0.0 mm 0.00 in0.0 mm 0.00 in0.0 mm
03:00 AM 57.4°F14.1°C 51.9°F11.1°C 82% 9.2 mph NE14.8 kmh NE 9.2 mph14.8 kmh 29.70 in1005.8 mb 0.00 in0.0 mm 0.00 in0.0 mm 0.00 in0.0 mm
03:10 AM 57.4°F14.1°C 51.9°F11.1°C 82% 9.2 mph NE14.8 kmh NE 9.2 mph14.8 kmh 29.71 in1006.1 mb 0.00 in0.0 mm 0.00 in0.0 mm 0.00 in0.0 mm
03:20 AM 57.4°F14.1°C 51.9°F11.1°C 82% 9.2 mph NE14.8 kmh NE 9.2 mph14.8 kmh 29.70 in1005.8 mb 0.00 in0.0 mm 0.00 in0.0 mm 0.00 in0.0 mm
03:30 AM 57.4°F14.1°C 51.9°F11.1°C 82% 9.2 mph NE14.8 kmh NE 9.2 mph14.8 kmh 29.71 in1006.1 mb 0.00 in0.0 mm 0.00 in0.0 mm 0.00 in0.0 mm
03:40 AM 57.4°F14.1°C 51.9°F11.1°C 82% 9.2 mph NE14.8 kmh NE 9.2 mph14.8 kmh 29.71 in1006.1 mb 0.00 in0.0 mm 0.00 in0.0 mm 0.00 in0.0 mm
03:50 AM 57.4°F14.1°C 51.9°F11.1°C 82% 9.2 mph NE14.8 kmh NE 9.2 mph14.8 kmh 29.72 in1006.4 mb 0.00 in0.0 mm 0.00 in0.0 mm 0.00 in0.0 mm
04:00 AM 57.4°F14.1°C 51.9°F11.1°C 82% 9.2 mph NE14.8 kmh NE 9.2 mph14.8 kmh 29.71 in1006.1 mb 0.00 in0.0 mm 0.00 in0.0 mm 0.00 in0.0 mm
04:10 AM 57.4°F14.1°C 51.9°F11.1°C 82% 9.2 mph NE14.8 kmh NE 9.2 mph14.8 kmh 29.71 in1006.1 mb 0.00 in0.0 mm 0.00 in0.0 mm 0.00 in0.0 mm
04:20 AM 57.4°F14.1°C 51.9°F11.1°C 82% 9.2 mph NE14.8 kmh NE 9.2 mph14.8 kmh 29.72 in1006.4 mb 0.00 in0.0 mm 0.00 in0.0 mm 0.00 in0.0 mm
04:30 AM 57.4°F14.1°C 51.9°F11.1°C 82% 9.2 mph NE14.8 kmh NE 9.2 mph14.8 kmh 29.72 in1006.4 mb 0.00 in0.0 mm 0.00 in0.0 mm 0.00 in0.0 mm
04:40 AM 57.4°F14.1°C 51.9°F11.1°C 82% 9.2 mph NE14.8 kmh NE 9.2 mph14.8 kmh 29.72 in1006.4 mb 0.00 in0.0 mm 0.00 in0.0 mm 0.00 in0.0 mm
04:50 AM 57.4°F14.1°C 51.9°F11.1°C 82% 9.2 mph NE14.8 kmh NE 9.2 mph14.8 kmh 29.71 in1006.1 mb 0.00 in0.0 mm 0.00 in0.0 mm 0.00 in0.0 mm
05:00 AM 57.4°F14.1°C 51.9°F11.1°C 82% 9.2 mph NE14.8 kmh NE 9.2 mph14.8 kmh 29.72 in1006.4 mb 0.00 in0.0 mm 0.00 in0.0 mm 0.00 in0.0 mm
05:10 AM 57.4°F14.1°C 51.9°F11.1°C 82% 9.2 mph NE14.8 kmh NE 9.2 mph14.8 kmh 29.71 in1006.1 mb 0.00 in0.0 mm 0.00 in0.0 mm 0.00 in0.0 mm
05:20 AM 57.4°F14.1°C 51.9°F11.1°C 82% 9.2 mph NE14.8 kmh NE 9.2 mph14.8 kmh 29.71 in1006.1 mb 0.00 in0.0 mm 0.00 in0.0 mm 0.00 in0.0 mm
05:30 AM 57.4°F14.1°C 51.9°F11.1°C 82% 9.2 mph NE14.8 kmh NE 9.2 mph14.8 kmh 29.71 in1006.1 mb 0.00 in0.0 mm 0.00 in0.0 mm 0.00 in0.0 mm
05:40 AM 57.4°F14.1°C 51.9°F11.1°C 82% 9.2 mph NE14.8 kmh NE 9.2 mph14.8 kmh 29.72 in1006.4 mb 0.00 in0.0 mm 0.00 in0.0 mm 0.00 in0.0 mm
05:50 AM 57.4°F14.1°C 51.9°F11.1°C 82% 9.2 mph NE14.8 kmh NE 9.2 mph14.8 kmh 29.71 in1006.1 mb 0.00 in0.0 mm 0.00 in0.0 mm 0.00 in0.0 mm
06:00 AM 57.4°F14.1°C 51.9°F11.1°C 82% 9.2 mph NE14.8 kmh NE 9.2 mph14.8 kmh 29.72 in1006.4 mb 0.00 in0.0 mm 0.00 in0.0 mm 0.00 in0.0 mm
06:10 AM 57.4°F14.1°C 51.9°F11.1°C 82% 9.2 mph NE14.8 kmh NE 9.2 mph14.8 kmh 29.72 in1006.4 mb 0.00 in0.0 mm 0.00 in0.0 mm 0.00 in0.0 mm
06:20 AM 57.4°F14.1°C 51.9°F11.1°C 82% 9.2 mph NE14.8 kmh NE 9.2 mph14.8 kmh 29.72 in1006.4 mb 0.00 in0.0 mm 0.00 in0.0 mm 0.00 in0.0 mm
06:30 AM 57.4°F14.1°C 51.9°F11.1°C 82% 9.2 mph NE14.8 kmh NE 9.2 mph14.8 kmh 29.72 in1006.4 mb 0.00 in0.0 mm 0.00 in0.0 mm 0.00 in0.0 mm
06:40 AM 57.4°F14.1°C 51.9°F11.1°C 82% 9.2 mph NE14.8 kmh NE 9.2 mph14.8 kmh 29.71 in1006.1 mb 0.00 in0.0 mm 0.00 in0.0 mm 0.00 in0.0 mm
06:50 AM 57.4°F14.1°C 51.9°F11.1°C 82% 9.2 mph NE14.8 kmh NE 9.2 mph14.8 kmh 29.72 in1006.4 mb 0.00 in0.0 mm 0.00 in0.0 mm 0.00 in0.0 mm
07:00 AM 57.4°F14.1°C 51.9°F11.1°C 82% 9.2 mph NE14.8 kmh NE 9.2 mph14.8 kmh 29.71 in1006.1 mb 0.00 in0.0 mm 0.00 in0.0 mm 0.00 in0.0 mm
07:10 AM 57.4°F14.1°C 51.9°F11.1°C 82% 9.2 mph NE14.8 kmh NE 9.2 mph14.8 kmh 29.72 in1006.4 mb 0.00 in0.0 mm 0.00 in0.0 mm 0.00 in0.0 mm
07:20 AM 57.4°F14.1°C 51.9°F11.1°C 82% 9.2 mph NE14.8 kmh NE 9.2 mph14.8 kmh 29.73 in1006.8 mb 0.00 in0.0 mm 0.00 in0.0 mm 0.00 in0.0 mm
07:30 AM 57.4°F14.1°C 51.9°F11.1°C 82% 9.2 mph NE14.8 kmh NE 9.2 mph14.8 kmh 29.72 in1006.4 mb 0.00 in0.0 mm 0.00 in0.0 mm 0.00 in0.0 mm
07:40 AM 57.4°F14.1°C 51.9°F11.1°C 82% 9.2 mph NE14.8 kmh NE 9.2 mph14.8 kmh 29.72 in1006.4 mb 0.00 in0.0 mm 0.00 in0.0 mm 0.00 in0.0 mm
07:50 AM 57.4°F14.1°C 51.9°F11.1°C 82% 9.2 mph NE14.8 kmh NE 9.2 mph14.8 kmh 29.72 in1006.4 mb 0.00 in0.0 mm 0.00 in0.0 mm 0.00 in0.0 mm
08:00 AM 57.4°F14.1°C 51.9°F11.1°C 82% 9.2 mph NE14.8 kmh NE 9.2 mph14.8 kmh 29.73 in1006.8 mb 0.00 in0.0 mm 0.00 in0.0 mm 0.00 in0.0 mm
08:10 AM 57.4°F14.1°C 51.9°F11.1°C 82% 9.2 mph NE14.8 kmh NE 9.2 mph14.8 kmh 29.72 in1006.4 mb 0.00 in0.0 mm 0.00 in0.0 mm 0.00 in0.0 mm
08:20 AM 57.4°F14.1°C 51.9°F11.1°C 82% 9.2 mph NE14.8 kmh NE 9.2 mph14.8 kmh 29.72 in1006.4 mb 0.00 in0.0 mm 0.00 in0.0 mm 0.00 in0.0 mm
08:30 AM 57.4°F14.1°C 51.9°F11.1°C 82% 9.2 mph NE14.8 kmh NE 9.2 mph14.8 kmh 29.73 in1006.8 mb 0.00 in0.0 mm 0.00 in0.0 mm 0.00 in0.0 mm
08:40 AM 57.4°F14.1°C 51.9°F11.1°C 82% 9.2 mph NE14.8 kmh NE 9.2 mph14.8 kmh 29.72 in1006.4 mb 0.00 in0.0 mm 0.00 in0.0 mm 0.00 in0.0 mm
08:50 AM 57.4°F14.1°C 51.9°F11.1°C 82% 9.2 mph NE14.8 kmh NE 9.2 mph14.8 kmh 29.73 in1006.8 mb 0.00 in0.0 mm 0.00 in0.0 mm 0.00 in0.0 mm
09:00 AM 57.4°F14.1°C 51.9°F11.1°C 82% 9.2 mph NE14.8 kmh NE 9.2 mph14.8 kmh 29.73 in1006.8 mb 0.00 in0.0 mm 0.00 in0.0 mm 0.00 in0.0 mm
09:10 AM 57.4°F14.1°C 51.9°F11.1°C 82% 9.2 mph NE14.8 kmh NE 9.2 mph14.8 kmh 29.72 in1006.4 mb 0.00 in0.0 mm 0.00 in0.0 mm 0.00 in0.0 mm
09:20 AM 57.4°F14.1°C 51.9°F11.1°C 82% 9.2 mph NE14.8 kmh NE 9.2 mph14.8 kmh 29.72 in1006.4 mb 0.00 in0.0 mm 0.00 in0.0 mm 0.00 in0.0 mm
09:30 AM 57.4°F14.1°C 51.9°F11.1°C 82% 9.2 mph NE14.8 kmh NE 9.2 mph14.8 kmh 29.72 in1006.4 mb 0.00 in0.0 mm 0.00 in0.0 mm 0.00 in0.0 mm
09:40 AM 57.4°F14.1°C 51.9°F11.1°C 82% 9.2 mph NE14.8 kmh NE 9.2 mph14.8 kmh 29.72 in1006.4 mb 0.00 in0.0 mm 0.00 in0.0 mm 0.00 in0.0 mm
09:50 AM 57.4°F14.1°C 51.9°F11.1°C 82% 9.2 mph NE14.8 kmh NE 9.2 mph14.8 kmh 29.73 in1006.8 mb 0.00 in0.0 mm 0.00 in0.0 mm 0.00 in0.0 mm
10:00 AM 57.4°F14.1°C 51.9°F11.1°C 82% 9.2 mph NE14.8 kmh NE 9.2 mph14.8 kmh 29.72 in1006.4 mb 0.00 in0.0 mm 0.00 in0.0 mm 0.00 in0.0 mm
10:10 AM 57.4°F14.1°C 51.9°F11.1°C 82% 9.2 mph NE14.8 kmh NE 9.2 mph14.8 kmh 29.72 in1006.4 mb 0.00 in0.0 mm 0.00 in0.0 mm 0.00 in0.0 mm
10:20 AM 57.4°F14.1°C 51.9°F11.1°C 82% 9.2 mph NE14.8 kmh NE 9.2 mph14.8 kmh 29.73 in1006.8 mb 0.00 in0.0 mm 0.00 in0.0 mm 0.00 in0.0 mm
10:30 AM 57.4°F14.1°C 51.9°F11.1°C 82% 9.2 mph NE14.8 kmh NE 9.2 mph14.8 kmh 29.73 in1006.8 mb 0.00 in0.0 mm 0.00 in0.0 mm 0.00 in0.0 mm
10:40 AM 57.4°F14.1°C 51.9°F11.1°C 82% 9.2 mph NE14.8 kmh NE 9.2 mph14.8 kmh 29.73 in1006.8 mb 0.00 in0.0 mm 0.00 in0.0 mm 0.00 in0.0 mm
10:50 AM 57.4°F14.1°C 51.9°F11.1°C 82% 9.2 mph NE14.8 kmh NE 9.2 mph14.8 kmh 29.73 in1006.8 mb 0.00 in0.0 mm 0.00 in0.0 mm 0.00 in0.0 mm
11:00 AM 57.4°F14.1°C 51.9°F11.1°C 82% 9.2 mph NE14.8 kmh NE 9.2 mph14.8 kmh 29.73 in1006.8 mb 0.00 in0.0 mm 0.00 in0.0 mm 0.00 in0.0 mm
11:10 AM 57.4°F14.1°C 51.9°F11.1°C 82% 9.2 mph NE14.8 kmh NE 9.2 mph14.8 kmh 29.73 in1006.8 mb 0.00 in0.0 mm 0.00 in0.0 mm 0.00 in0.0 mm
11:20 AM 57.4°F14.1°C 51.9°F11.1°C 82% 9.2 mph NE14.8 kmh NE 9.2 mph14.8 kmh 29.73 in1006.8 mb 0.00 in0.0 mm 0.00 in0.0 mm 0.00 in0.0 mm
11:30 AM 57.4°F14.1°C 51.9°F11.1°C 82% 9.2 mph NE14.8 kmh NE 9.2 mph14.8 kmh 29.73 in1006.8 mb 0.00 in0.0 mm 0.00 in0.0 mm 0.00 in0.0 mm
11:40 AM 57.4°F14.1°C 51.9°F11.1°C 82% 9.2 mph NE14.8 kmh NE 9.2 mph14.8 kmh 29.73 in1006.8 mb 0.00 in0.0 mm 0.00 in0.0 mm 0.00 in0.0 mm
11:50 AM 57.4°F14.1°C 51.9°F11.1°C 82% 9.2 mph NE14.8 kmh NE 9.2 mph14.8 kmh 29.72 in1006.4 mb 0.00 in0.0 mm 0.00 in0.0 mm 0.00 in0.0 mm
12:00 PM 57.4°F14.1°C 51.9°F11.1°C 82% 9.2 mph NE14.8 kmh NE 9.2 mph14.8 kmh 29.72 in1006.4 mb 0.00 in0.0 mm 0.00 in0.0 mm 0.00 in0.0 mm
12:10 PM 57.4°F14.1°C 51.9°F11.1°C 82% 9.2 mph NE14.8 kmh NE 9.2 mph14.8 kmh 29.72 in1006.4 mb 0.00 in0.0 mm 0.00 in0.0 mm 0.00 in0.0 mm
12:20 PM 57.4°F14.1°C 51.9°F11.1°C 82% 9.2 mph NE14.8 kmh NE 9.2 mph14.8 kmh 29.72 in1006.4 mb 0.00 in0.0 mm 0.00 in0.0 mm 0.00 in0.0 mm
12:30 PM 57.4°F14.1°C 51.9°F11.1°C 82% 9.2 mph NE14.8 kmh NE 9.2 mph14.8 kmh 29.72 in1006.4 mb 0.00 in0.0 mm 0.00 in0.0 mm 0.00 in0.0 mm
12:40 PM 57.4°F14.1°C 51.9°F11.1°C 82% 9.2 mph NE14.8 kmh NE 9.2 mph14.8 kmh 29.72 in1006.4 mb 0.00 in0.0 mm 0.00 in0.0 mm 0.00 in0.0 mm
12:50 PM 57.4°F14.1°C 51.9°F11.1°C 82% 9.2 mph NE14.8 kmh NE 9.2 mph14.8 kmh 29.72 in1006.4 mb 0.00 in0.0 mm 0.00 in0.0 mm 0.00 in0.0 mm
01:00 PM 57.4°F14.1°C 51.9°F11.1°C 82% 9.2 mph NE14.8 kmh NE 9.2 mph14.8 kmh 29.72 in1006.4 mb 0.00 in0.0 mm 0.00 in0.0 mm 0.00 in0.0 mm
01:10 PM 57.4°F14.1°C 51.9°F11.1°C 82% 9.2 mph NE14.8 kmh NE 9.2 mph14.8 kmh 29.72 in1006.4 mb 0.00 in0.0 mm 0.00 in0.0 mm 0.00 in0.0 mm
01:20 PM 57.4°F14.1°C 51.9°F11.1°C 82% 9.2 mph NE14.8 kmh NE 9.2 mph14.8 kmh 29.73 in1006.8 mb 0.00 in0.0 mm 0.00 in0.0 mm 0.00 in0.0 mm
01:30 PM 57.4°F14.1°C 51.9°F11.1°C 82% 9.2 mph NE14.8 kmh NE 9.2 mph14.8 kmh 29.73 in1006.8 mb 0.00 in0.0 mm 0.00 in0.0 mm 0.00 in0.0 mm
01:40 PM 57.4°F14.1°C 51.9°F11.1°C 82% 9.2 mph NE14.8 kmh NE 9.2 mph14.8 kmh 29.73 in1006.8 mb 0.00 in0.0 mm 0.00 in0.0 mm 0.00 in0.0 mm
01:50 PM 57.4°F14.1°C 51.9°F11.1°C 82% 9.2 mph NE14.8 kmh NE 9.2 mph14.8 kmh 29.72 in1006.4 mb 0.00 in0.0 mm 0.00 in0.0 mm 0.00 in0.0 mm
02:00 PM 57.4°F14.1°C 51.9°F11.1°C 82% 9.2 mph NE14.8 kmh NE 9.2 mph14.8 kmh 29.72 in1006.4 mb 0.00 in0.0 mm 0.00 in0.0 mm 0.00 in0.0 mm
02:10 PM 57.4°F14.1°C 51.9°F11.1°C 82% 9.2 mph NE14.8 kmh NE 9.2 mph14.8 kmh 29.72 in1006.4 mb 0.00 in0.0 mm 0.00 in0.0 mm 0.00 in0.0 mm
02:20 PM 57.4°F14.1°C 51.9°F11.1°C 82% 9.2 mph NE14.8 kmh NE 9.2 mph14.8 kmh 29.72 in1006.4 mb 0.00 in0.0 mm 0.00 in0.0 mm 0.00 in0.0 mm
02:30 PM 57.4°F14.1°C 51.9°F11.1°C 82% 9.2 mph NE14.8 kmh NE 9.2 mph14.8 kmh 29.72 in1006.4 mb 0.00 in0.0 mm 0.00 in0.0 mm 0.00 in0.0 mm
02:40 PM 57.4°F14.1°C 51.9°F11.1°C 82% 9.2 mph NE14.8 kmh NE 9.2 mph14.8 kmh 29.72 in1006.4 mb 0.00 in0.0 mm 0.00 in0.0 mm 0.00 in0.0 mm
02:50 PM 57.4°F14.1°C 51.9°F11.1°C 82% 9.2 mph NE14.8 kmh NE 9.2 mph14.8 kmh 29.71 in1006.1 mb 0.00 in0.0 mm 0.00 in0.0 mm 0.00 in0.0 mm
03:00 PM 57.4°F14.1°C 51.9°F11.1°C 82% 9.2 mph NE14.8 kmh NE 9.2 mph14.8 kmh 29.71 in1006.1 mb 0.00 in0.0 mm 0.00 in0.0 mm 0.00 in0.0 mm
03:10 PM 57.4°F14.1°C 51.9°F11.1°C 82% 9.2 mph NE14.8 kmh NE 9.2 mph14.8 kmh 29.71 in1006.1 mb 0.00 in0.0 mm 0.00 in0.0 mm 0.00 in0.0 mm
03:20 PM 57.4°F14.1°C 51.9°F11.1°C 82% 9.2 mph NE14.8 kmh NE 9.2 mph14.8 kmh 29.71 in1006.1 mb 0.00 in0.0 mm 0.00 in0.0 mm 0.00 in0.0 mm
03:30 PM 57.4°F14.1°C 51.9°F11.1°C 82% 9.2 mph NE14.8 kmh NE 9.2 mph14.8 kmh 29.72 in1006.4 mb 0.00 in0.0 mm 0.00 in0.0 mm 0.00 in0.0 mm
03:40 PM 57.4°F14.1°C 51.9°F11.1°C 82% 9.2 mph NE14.8 kmh NE 9.2 mph14.8 kmh 29.71 in1006.1 mb 0.00 in0.0 mm 0.00 in0.0 mm 0.00 in0.0 mm
03:50 PM 57.4°F14.1°C 51.9°F11.1°C 82% 9.2 mph NE14.8 kmh NE 9.2 mph14.8 kmh 29.71 in1006.1 mb 0.00 in0.0 mm 0.00 in0.0 mm 0.00 in0.0 mm
04:00 PM 57.4°F14.1°C 51.9°F11.1°C 82% 9.2 mph NE14.8 kmh NE 9.2 mph14.8 kmh 29.71 in1006.1 mb 0.00 in0.0 mm 0.00 in0.0 mm 0.00 in0.0 mm
04:10 PM 57.4°F14.1°C 51.9°F11.1°C 82% 9.2 mph NE14.8 kmh NE 9.2 mph14.8 kmh 29.71 in1006.1 mb 0.00 in0.0 mm 0.00 in0.0 mm 0.00 in0.0 mm
04:20 PM 57.4°F14.1°C 51.9°F11.1°C 82% 9.2 mph NE14.8 kmh NE 9.2 mph14.8 kmh 29.71 in1006.1 mb 0.00 in0.0 mm 0.00 in0.0 mm 0.00 in0.0 mm
04:30 PM 57.4°F14.1°C 51.9°F11.1°C 82% 9.2 mph NE14.8 kmh NE 9.2 mph14.8 kmh 29.71 in1006.1 mb 0.00 in0.0 mm 0.00 in0.0 mm 0.00 in0.0 mm
04:40 PM 57.4°F14.1°C 51.9°F11.1°C 82% 9.2 mph NE14.8 kmh NE 9.2 mph14.8 kmh 29.70 in1005.8 mb 0.00 in0.0 mm 0.00 in0.0 mm 0.00 in0.0 mm
04:50 PM 57.4°F14.1°C 51.9°F11.1°C 82% 9.2 mph NE14.8 kmh NE 9.2 mph14.8 kmh 29.70 in1005.8 mb 0.00 in0.0 mm 0.00 in0.0 mm 0.00 in0.0 mm
05:00 PM 57.4°F14.1°C 51.9°F11.1°C 82% 9.2 mph NE14.8 kmh NE 9.2 mph14.8 kmh 29.69 in1005.4 mb 0.00 in0.0 mm 0.00 in0.0 mm 0.00 in0.0 mm
05:10 PM 57.4°F14.1°C 51.9°F11.1°C 82% 9.2 mph NE14.8 kmh NE 9.2 mph14.8 kmh 29.69 in1005.4 mb 0.00 in0.0 mm 0.00 in0.0 mm 0.00 in0.0 mm
05:20 PM 57.4°F14.1°C 51.9°F11.1°C 82% 9.2 mph NE14.8 kmh NE 9.2 mph14.8 kmh 29.69 in1005.4 mb 0.00 in0.0 mm 0.00 in0.0 mm 0.00 in0.0 mm
05:30 PM 57.4°F14.1°C 51.9°F11.1°C 82% 9.2 mph NE14.8 kmh NE 9.2 mph14.8 kmh 29.69 in1005.4 mb 0.00 in0.0 mm 0.00 in0.0 mm 0.00 in0.0 mm
05:40 PM 57.4°F14.1°C 51.9°F11.1°C 82% 9.2 mph NE14.8 kmh NE 9.2 mph14.8 kmh 29.69 in1005.4 mb 0.00 in0.0 mm 0.00 in0.0 mm 0.00 in0.0 mm
05:50 PM 57.4°F14.1°C 51.9°F11.1°C 82% 9.2 mph NE14.8 kmh NE 9.2 mph14.8 kmh 29.69 in1005.4 mb 0.00 in0.0 mm 0.00 in0.0 mm 0.00 in0.0 mm
06:00 PM 59.7°F15.4°C 51.4°F10.8°C 74% 5.8 mph ENE9.3 kmh ENE 8.3 mph13.4 kmh 29.68 in1005.1 mb 0.00 in0.0 mm 0.00 in0.0 mm 0.00 in0.0 mm
06:10 PM 59.9°F15.5°C 51.2°F10.7°C 73% 6.9 mph ENE11.1 kmh ENE 9.2 mph14.8 kmh 29.69 in1005.4 mb 0.00 in0.0 mm 0.00 in0.0 mm 0.00 in0.0 mm
06:20 PM 59.7°F15.4°C 50.7°F10.4°C 72% 7.6 mph E12.2 kmh E 10.7 mph17.2 kmh 29.69 in1005.4 mb 0.00 in0.0 mm 0.00 in0.0 mm 0.00 in0.0 mm
06:30 PM 59.7°F15.4°C 50.7°F10.4°C 72% 6.2 mph ENE10.0 kmh ENE 9.2 mph14.8 kmh 29.69 in1005.4 mb 0.00 in0.0 mm 0.00 in0.0 mm 0.00 in0.0 mm
06:40 PM 59.9°F15.5°C 50.9°F10.5°C 72% 7.0 mph NE11.3 kmh NE 9.2 mph14.8 kmh 29.69 in1005.4 mb 0.00 in0.0 mm 0.00 in0.0 mm 0.00 in0.0 mm
06:50 PM 59.7°F15.4°C 50.7°F10.4°C 72% 6.1 mph NE9.8 kmh NE 7.6 mph12.2 kmh 29.68 in1005.1 mb 0.00 in0.0 mm 0.00 in0.0 mm 0.00 in0.0 mm
07:00 PM 59.7°F15.4°C 50.7°F10.4°C 72% 4.8 mph NE7.7 kmh NE 6.0 mph9.7 kmh 29.69 in1005.4 mb 0.00 in0.0 mm 0.00 in0.0 mm 0.00 in0.0 mm
07:10 PM 59.5°F15.3°C 50.9°F10.5°C 73% 5.1 mph ENE8.2 kmh ENE 6.9 mph11.1 kmh 29.69 in1005.4 mb 0.00 in0.0 mm 0.00 in0.0 mm 0.00 in0.0 mm
07:20 PM 59.7°F15.4°C 50.7°F10.4°C 72% 5.4 mph NE8.7 kmh NE 6.9 mph11.1 kmh 29.69 in1005.4 mb 0.00 in0.0 mm 0.00 in0.0 mm 0.00 in0.0 mm
07:30 PM 59.4°F15.2°C 50.7°F10.4°C 73% 5.3 mph NE8.5 kmh NE 6.9 mph11.1 kmh 29.69 in1005.4 mb 0.00 in0.0 mm 0.00 in0.0 mm 0.00 in0.0 mm
07:40 PM 59.2°F15.1°C 50.5°F10.3°C 73% 4.2 mph NE6.8 kmh NE 6.0 mph9.7 kmh 29.69 in1005.4 mb 0.00 in0.0 mm 0.00 in0.0 mm 0.00 in0.0 mm
07:50 PM 59.2°F15.1°C 50.9°F10.5°C 74% 4.0 mph NE6.4 kmh NE 5.4 mph8.7 kmh 29.70 in1005.8 mb 0.00 in0.0 mm 0.00 in0.0 mm 0.00 in0.0 mm
08:00 PM 59.0°F15.0°C 50.7°F10.4°C 74% 4.3 mph NE6.9 kmh NE 6.0 mph9.7 kmh 29.69 in1005.4 mb 0.00 in0.0 mm 0.00 in0.0 mm 0.00 in0.0 mm
08:10 PM 58.6°F14.8°C 50.4°F10.2°C 74% 4.4 mph E7.1 kmh E 6.9 mph11.1 kmh 29.70 in1005.8 mb 0.00 in0.0 mm 0.00 in0.0 mm 0.00 in0.0 mm
08:20 PM 58.5°F14.7°C 50.6°F10.3°C 75% 3.8 mph E6.1 kmh E 4.5 mph7.2 kmh 29.70 in1005.8 mb 0.00 in0.0 mm 0.00 in0.0 mm 0.00 in0.0 mm
08:30 PM 58.3°F14.6°C 50.8°F10.4°C 76% 3.8 mph E6.1 kmh E 4.5 mph7.2 kmh 29.71 in1006.1 mb 0.00 in0.0 mm 0.00 in0.0 mm 0.00 in0.0 mm
08:40 PM 57.9°F14.4°C 50.8°F10.4°C 77% 3.9 mph ENE6.3 kmh ENE 5.4 mph8.7 kmh 29.71 in1006.1 mb 0.00 in0.0 mm 0.00 in0.0 mm 0.00 in0.0 mm
08:50 PM 57.7°F14.3°C 50.9°F10.5°C 78% 3.7 mph ENE6.0 kmh ENE 4.5 mph7.2 kmh 29.71 in1006.1 mb 0.00 in0.0 mm 0.00 in0.0 mm 0.00 in0.0 mm
09:00 PM 57.4°F14.1°C 50.9°F10.5°C 79% 3.8 mph ENE6.1 kmh ENE 5.4 mph8.7 kmh 29.72 in1006.4 mb 0.00 in0.0 mm 0.00 in0.0 mm 0.00 in0.0 mm
09:10 PM 57.4°F14.1°C 50.9°F10.5°C 79% 3.3 mph NE5.3 kmh NE 5.4 mph8.7 kmh 29.71 in1006.1 mb 0.00 in0.0 mm 0.00 in0.0 mm 0.00 in0.0 mm
09:20 PM 57.2°F14.0°C 50.4°F10.2°C 78% 3.7 mph ENE6.0 kmh ENE 4.5 mph7.2 kmh 29.72 in1006.4 mb 0.00 in0.0 mm 0.00 in0.0 mm 0.00 in0.0 mm
09:30 PM 57.0°F13.9°C 50.2°F10.1°C 78% 3.2 mph E5.1 kmh E 3.8 mph6.1 kmh 29.70 in1005.8 mb 0.00 in0.0 mm 0.00 in0.0 mm 0.00 in0.0 mm
09:40 PM 56.8°F13.8°C 49.7°F9.8°C 77% 3.3 mph E5.3 kmh E 4.5 mph7.2 kmh 29.70 in1005.8 mb 0.00 in0.0 mm 0.00 in0.0 mm 0.00 in0.0 mm
09:50 PM 56.8°F13.8°C 49.7°F9.8°C 77% 3.7 mph ENE6.0 kmh ENE 5.4 mph8.7 kmh 29.71 in1006.1 mb 0.00 in0.0 mm 0.00 in0.0 mm 0.00 in0.0 mm
10:00 PM 56.8°F13.8°C 49.7°F9.8°C 77% 3.2 mph NE5.1 kmh NE 3.8 mph6.1 kmh 29.71 in1006.1 mb 0.00 in0.0 mm 0.00 in0.0 mm 0.00 in0.0 mm
10:10 PM 56.7°F13.7°C 49.5°F9.7°C 77% 2.0 mph ENE3.2 kmh ENE 3.1 mph5.0 kmh 29.71 in1006.1 mb 0.00 in0.0 mm 0.00 in0.0 mm 0.00 in0.0 mm
10:20 PM 56.5°F13.6°C 49.7°F9.8°C 78% 2.4 mph NE3.9 kmh NE 4.5 mph7.2 kmh 29.71 in1006.1 mb 0.00 in0.0 mm 0.00 in0.0 mm 0.00 in0.0 mm
10:30 PM 56.3°F13.5°C 49.5°F9.7°C 78% 2.2 mph ENE3.5 kmh ENE 3.1 mph5.0 kmh 29.71 in1006.1 mb 0.00 in0.0 mm 0.00 in0.0 mm 0.00 in0.0 mm
10:40 PM 56.3°F13.5°C 49.9°F9.9°C 79% 3.3 mph ENE5.3 kmh ENE 3.8 mph6.1 kmh 29.71 in1006.1 mb 0.00 in0.0 mm 0.00 in0.0 mm 0.00 in0.0 mm
10:50 PM 56.3°F13.5°C 50.2°F10.1°C 80% 3.5 mph ENE5.6 kmh ENE 4.5 mph7.2 kmh 29.71 in1006.1 mb 0.00 in0.0 mm 0.00 in0.0 mm 0.00 in0.0 mm
11:00 PM 56.1°F13.4°C 50.0°F10.0°C 80% 3.5 mph ENE5.6 kmh ENE 4.5 mph7.2 kmh 29.71 in1006.1 mb 0.00 in0.0 mm 0.00 in0.0 mm 0.00 in0.0 mm
11:10 PM 55.9°F13.3°C 49.9°F9.9°C 80% 2.4 mph ENE3.9 kmh ENE 3.8 mph6.1 kmh 29.70 in1005.8 mb 0.00 in0.0 mm 0.00 in0.0 mm 0.00 in0.0 mm
11:20 PM 55.8°F13.2°C 49.7°F9.8°C 80% 1.8 mph ENE2.9 kmh ENE 3.1 mph5.0 kmh 29.71 in1006.1 mb 0.00 in0.0 mm 0.00 in0.0 mm 0.00 in0.0 mm
11:30 PM 55.6°F13.1°C 49.5°F9.7°C 80% 3.0 mph E4.8 kmh E 5.4 mph8.7 kmh 29.70 in1005.8 mb 0.00 in0.0 mm 0.00 in0.0 mm 0.00 in0.0 mm
11:40 PM 55.6°F13.1°C 49.5°F9.7°C 80% 2.9 mph NE4.7 kmh NE 6.0 mph9.7 kmh 29.71 in1006.1 mb 0.00 in0.0 mm 0.00 in0.0 mm 0.00 in0.0 mm
11:50 PM 55.4°F13.0°C 49.3°F9.6°C 80% 2.9 mph E4.7 kmh E 4.5 mph7.2 kmh 29.70 in1005.8 mb 0.00 in0.0 mm 0.00 in0.0 mm 0.00 in0.0 mm